Time;durP1;ratioP1;P1;durP2;ratioP2;P2;SDS_P1;SDS_P2;PMS_P1;PMS_P2;Temp;Humidity;BMP_temperature;BMP_pressure;BME280_temperature;BME280_humidity;BME280_pressure;Samples;Min_cycle;Max_cycle;Signal;HPM_P1;HPM_P2
2022/07/03 00:01:40;;;;;;;5.80;4.85;;;;;;;;;;5091509;28;20463;-83
2022/07/03 00:04:05;;;;;;;7.72;4.88;;;;;;;;;;5091166;28;20122;-83
2022/07/03 00:06:32;;;;;;;6.63;4.53;;;;;;;;;;5090113;28;20384;-84
2022/07/03 00:09:03;;;;;;;5.60;5.10;;;;;;;;;;5089822;28;20028;-83
2022/07/03 00:11:29;;;;;;;7.75;4.95;;;;;;;;;;5089836;28;20039;-83
2022/07/03 00:13:55;;;;;;;6.07;4.97;;;;;;;;;;5091172;28;20475;-84
2022/07/03 00:16:20;;;;;;;7.82;5.40;;;;;;;;;;5091196;28;20043;-83
2022/07/03 00:18:46;;;;;;;5.78;4.78;;;;;;;;;;5090147;28;20027;-83
2022/07/03 00:21:21;;;;;;;5.30;4.80;;;;;;;;;;5091702;28;20057;-85
2022/07/03 00:23:54;;;;;;;6.70;4.93;;;;;;;;;;5091516;28;20031;-85
2022/07/03 00:26:20;;;;;;;5.53;4.72;;;;;;;;;;5093689;28;20479;-84
2022/07/03 00:28:47;;;;;;;6.30;5.70;;;;;;;;;;5094799;28;20035;-85
2022/07/03 00:31:13;;;;;;;5.43;4.53;;;;;;;;;;5093190;28;20111;-85
2022/07/03 00:33:38;;;;;;;5.90;4.90;;;;;;;;;;5093611;28;20054;-85
2022/07/03 00:36:05;;;;;;;4.88;4.47;;;;;;;;;;5088133;28;20024;-82
2022/07/03 00:38:31;;;;;;;5.30;4.80;;;;;;;;;;5094969;28;20507;-84
2022/07/03 00:40:56;;;;;;;8.27;5.25;;;;;;;;;;5094098;28;20051;-84
2022/07/03 00:43:25;;;;;;;5.95;4.95;;;;;;;;;;5094646;28;20468;-85
2022/07/03 00:45:50;;;;;;;5.35;4.85;;;;;;;;;;5091480;28;20020;-84
2022/07/03 00:48:18;;;;;;;5.47;4.38;;;;;;;;;;5094072;28;20028;-82
2022/07/03 00:50:49;;;;;;;5.95;5.35;;;;;;;;;;5091826;28;20032;-82
2022/07/03 00:53:28;;;;;;;6.05;4.95;;;;;;;;;;5092518;28;20043;-82
2022/07/03 00:55:55;;;;;;;6.10;5.18;;;;;;;;;;5092574;28;20059;-83
2022/07/03 00:58:21;;;;;;;7.20;5.10;;;;;;;;;;5094646;28;20020;-84
2022/07/03 01:00:51;;;;;;;5.80;4.82;;;;;;;;;;5094453;28;20107;-86
2022/07/03 01:03:18;;;;;;;5.20;4.57;;;;;;;;;;5092851;28;20542;-86
2022/07/03 01:05:47;;;;;;;5.72;5.22;;;;;;;;;;5091673;28;20028;-83
2022/07/03 01:08:25;;;;;;;8.02;4.72;;;;;;;;;;5094139;28;20531;-86
2022/07/03 01:10:53;;;;;;;5.75;5.03;;;;;;;;;;5092200;28;20032;-83
2022/07/03 01:13:25;;;;;;;6.40;5.20;;;;;;;;;;5086985;28;20049;-83
2022/07/03 01:15:51;;;;;;;5.75;5.25;;;;;;;;;;5090605;28;20020;-82
2022/07/03 01:18:37;;;;;;;5.50;4.57;;;;;;;;;;5090974;28;20024;-83
2022/07/03 01:21:30;;;;;;;5.15;4.65;;;;;;;;;;5090392;28;20036;-84
2022/07/03 01:24:28;;;;;;;6.78;5.00;;;;;;;;;;5090291;28;20480;-83
2022/07/03 01:26:58;;;;;;;7.00;4.93;;;;;;;;;;5089283;28;20028;-83
2022/07/03 01:29:35;;;;;;;5.72;4.38;;;;;;;;;;5093512;28;20027;-83
2022/07/03 01:32:01;;;;;;;6.70;5.13;;;;;;;;;;5089238;28;20027;-82
2022/07/03 01:34:33;;;;;;;5.28;4.78;;;;;;;;;;5088229;28;20540;-83
2022/07/03 01:37:00;;;;;;;6.10;4.93;;;;;;;;;;5091581;28;20065;-83
2022/07/03 01:39:27;;;;;;;5.88;5.38;;;;;;;;;;5091533;28;20107;-83
2022/07/03 01:41:55;;;;;;;7.03;5.00;;;;;;;;;;5092728;28;20035;-85
2022/07/03 01:44:23;;;;;;;6.07;4.88;;;;;;;;;;5090771;28;20383;-84
2022/07/03 01:46:52;;;;;;;5.40;4.90;;;;;;;;;;5092316;28;20028;-85
2022/07/03 01:49:18;;;;;;;6.07;5.47;;;;;;;;;;5089152;28;20430;-84
2022/07/03 01:51:45;;;;;;;6.00;4.95;;;;;;;;;;5090677;28;20494;-85
2022/07/03 01:54:11;;;;;;;6.32;5.38;;;;;;;;;;5093226;28;20488;-84
2022/07/03 01:56:36;;;;;;;6.15;5.22;;;;;;;;;;5093374;28;20023;-84
2022/07/03 01:59:03;;;;;;;6.07;5.32;;;;;;;;;;5091659;28;20043;-84
2022/07/03 02:01:32;;;;;;;5.18;4.68;;;;;;;;;;5089086;28;20076;-84
2022/07/03 02:04:13;;;;;;;6.78;5.53;;;;;;;;;;5093197;28;20471;-84
2022/07/03 02:07:08;;;;;;;6.55;5.55;;;;;;;;;;5093217;28;20020;-85
2022/07/03 02:09:51;;;;;;;10.75;5.80;;;;;;;;;;5089635;28;20028;-84
2022/07/03 02:12:19;;;;;;;5.93;5.10;;;;;;;;;;5092277;28;20027;-84
2022/07/03 02:14:59;;;;;;;6.15;5.18;;;;;;;;;;5091557;28;20101;-84
2022/07/03 02:17:27;;;;;;;7.80;5.20;;;;;;;;;;5092246;28;20384;-83
2022/07/03 02:19:58;;;;;;;7.93;5.30;;;;;;;;;;5092331;28;20034;-83
2022/07/03 02:22:33;;;;;;;6.25;4.97;;;;;;;;;;5088092;28;20028;-84
2022/07/03 02:25:07;;;;;;;5.78;5.20;;;;;;;;;;5091173;28;20039;-84
2022/07/03 02:27:46;;;;;;;5.47;4.97;;;;;;;;;;5091601;28;20031;-85
2022/07/03 02:30:13;;;;;;;5.17;4.67;;;;;;;;;;5091252;28;20426;-85
2022/07/03 02:32:48;;;;;;;7.43;5.25;;;;;;;;;;5092979;28;20019;-84
2022/07/03 02:35:29;;;;;;;8.43;5.13;;;;;;;;;;5089741;28;20114;-84
2022/07/03 02:38:03;;;;;;;5.70;4.95;;;;;;;;;;5091057;28;20031;-85
2022/07/03 02:40:50;;;;;;;6.25;4.53;;;;;;;;;;5092218;28;20103;-85
2022/07/03 02:43:24;;;;;;;4.88;4.38;;;;;;;;;;5092200;28;20024;-83
2022/07/03 02:46:48;;;;;;;5.63;4.53;;;;;;;;;;5089800;28;20028;-85
2022/07/03 02:48:54;;;;;;;4.85;4.40;;;;;;;;;;5091734;28;20028;-83
2022/07/03 02:51:21;;;;;;;;;;;;;;;;;;5092586;28;20040;-84
2022/07/03 02:53:59;;;;;;;5.18;4.68;;;;;;;;;;5092343;28;19916;-84
2022/07/03 02:56:57;;;;;;;6.95;4.80;;;;;;;;;;5092048;28;20476;-84
2022/07/03 02:59:46;;;;;;;6.40;4.70;;;;;;;;;;5091355;28;20116;-85
2022/07/03 03:02:25;;;;;;;6.97;4.65;;;;;;;;;;5090089;28;20052;-84
2022/07/03 03:05:02;;;;;;;5.20;4.70;;;;;;;;;;5089102;28;20106;-84
2022/07/03 03:07:48;;;;;;;5.35;4.82;;;;;;;;;;5088489;28;20024;-83
2022/07/03 03:10:16;;;;;;;5.75;4.60;;;;;;;;;;5086794;28;20037;-83
2022/07/03 03:12:46;;;;;;;64.78;9.00;;;;;;;;;;5086979;28;20460;-84
2022/07/03 03:15:12;;;;;;;46.05;43.58;;;;;;;;;;5085132;28;20043;-83
2022/07/03 03:17:51;;;;;;;8.05;4.40;;;;;;;;;;5087945;28;20020;-83
2022/07/03 03:20:23;;;;;;;6.45;4.72;;;;;;;;;;5085843;28;20726;-83
2022/07/03 03:23:02;;;;;;;57.60;8.55;;;;;;;;;;5088816;28;20119;-83
2022/07/03 03:25:28;;;;;;;20.20;6.70;;;;;;;;;;5086373;28;20426;-83
2022/07/03 03:27:53;;;;;;;5.60;4.97;;;;;;;;;;5087484;28;20027;-84
2022/07/03 03:30:19;;;;;;;7.05;5.22;;;;;;;;;;5088967;28;20027;-83
2022/07/03 03:32:45;;;;;;;6.68;4.97;;;;;;;;;;5088396;28;20028;-84
2022/07/03 03:35:10;;;;;;;5.78;5.28;;;;;;;;;;5090149;28;20030;-83
2022/07/03 03:37:36;;;;;;;7.82;5.88;;;;;;;;;;5091310;28;20486;-84
2022/07/03 03:40:03;;;;;;;6.00;5.38;;;;;;;;;;5089602;28;20028;-83
2022/07/03 03:42:29;;;;;;;5.95;5.07;;;;;;;;;;5088198;28;20052;-83
2022/07/03 03:44:54;;;;;;;6.38;5.18;;;;;;;;;;5089599;28;20170;-82
2022/07/03 03:47:19;;;;;;;6.25;5.13;;;;;;;;;;5090233;28;20039;-83
2022/07/03 03:49:45;;;;;;;6.78;6.18;;;;;;;;;;5088118;28;20027;-83
2022/07/03 03:52:11;;;;;;;7.10;5.75;;;;;;;;;;5088379;28;20482;-84
2022/07/03 03:54:36;;;;;;;6.50;5.90;;;;;;;;;;5089066;28;20051;-84
2022/07/03 03:57:19;;;;;;;6.20;5.60;;;;;;;;;;5089131;28;20028;-84
2022/07/03 03:59:45;;;;;;;7.60;6.30;;;;;;;;;;5087729;28;20020;-84
2022/07/03 04:02:10;;;;;;;6.63;6.03;;;;;;;;;;5095292;28;20418;-84
2022/07/03 04:04:36;;;;;;;6.65;5.93;;;;;;;;;;5094397;28;20027;-84
2022/07/03 04:07:01;;;;;;;6.40;5.80;;;;;;;;;;5094514;28;20126;-84
2022/07/03 04:09:26;;;;;;;6.55;5.93;;;;;;;;;;5091993;28;20463;-84
2022/07/03 04:11:52;;;;;;;6.95;6.07;;;;;;;;;;5094067;28;20172;-84
2022/07/03 04:14:18;;;;;;;6.30;5.70;;;;;;;;;;5094589;28;20103;-85
2022/07/03 04:16:43;;;;;;;7.28;6.07;;;;;;;;;;5090777;28;20032;-84
2022/07/03 04:19:09;;;;;;;8.15;5.22;;;;;;;;;;5091168;28;20031;-82
2022/07/03 04:21:34;;;;;;;6.65;5.65;;;;;;;;;;5094734;28;20027;-83
2022/07/03 04:23:59;;;;;;;8.52;5.68;;;;;;;;;;5087933;28;20530;-85
2022/07/03 04:26:25;;;;;;;6.47;5.70;;;;;;;;;;5092290;28;20052;-84
2022/07/03 04:28:50;;;;;;;6.07;5.55;;;;;;;;;;5090721;28;20154;-85
2022/07/03 04:31:16;;;;;;;7.00;6.30;;;;;;;;;;5095593;28;20073;-82
2022/07/03 04:33:41;;;;;;;8.02;5.90;;;;;;;;;;5090917;28;20023;-86
2022/07/03 04:36:07;;;;;;;7.22;6.10;;;;;;;;;;5091822;28;20089;-85
2022/07/03 04:38:32;;;;;;;8.32;6.10;;;;;;;;;;5093311;28;20063;-85
2022/07/03 04:40:57;;;;;;;6.63;5.90;;;;;;;;;;5093045;28;20097;-85
2022/07/03 04:43:23;;;;;;;6.20;5.32;;;;;;;;;;5093523;28;20028;-86
2022/07/03 04:45:48;;;;;;;6.57;5.97;;;;;;;;;;5093553;28;20073;-84
2022/07/03 04:48:14;;;;;;;6.47;5.88;;;;;;;;;;5091878;28;20032;-84
2022/07/03 04:50:39;;;;;;;7.95;5.22;;;;;;;;;;5091120;28;20028;-85
2022/07/03 04:53:05;;;;;;;5.80;5.13;;;;;;;;;;5094162;28;20126;-83
2022/07/03 04:55:31;;;;;;;5.40;4.90;;;;;;;;;;5094621;28;20107;-83
2022/07/03 04:57:56;;;;;;;5.75;5.25;;;;;;;;;;5093370;28;20052;-85
2022/07/03 05:00:21;;;;;;;5.35;4.78;;;;;;;;;;5093440;28;20048;-84
2022/07/03 05:02:47;;;;;;;7.00;5.40;;;;;;;;;;5093179;28;20046;-85
2022/07/03 05:05:12;;;;;;;6.78;5.32;;;;;;;;;;5092598;28;20476;-85
2022/07/03 05:07:38;;;;;;;6.10;5.50;;;;;;;;;;5092887;28;20024;-84
2022/07/03 05:10:04;;;;;;;5.45;4.95;;;;;;;;;;5094104;28;20027;-85
2022/07/03 05:12:29;;;;;;;5.75;5.25;;;;;;;;;;5091869;28;20028;-84
2022/07/03 05:14:54;;;;;;;6.63;5.28;;;;;;;;;;5093639;28;20032;-85
2022/07/03 05:17:20;;;;;;;6.05;5.45;;;;;;;;;;5093957;28;20410;-84
2022/07/03 05:19:46;;;;;;;7.38;6.30;;;;;;;;;;5093573;28;20388;-85
2022/07/03 05:22:11;;;;;;;6.35;5.68;;;;;;;;;;5092645;28;20099;-84
2022/07/03 05:24:37;;;;;;;6.80;6.10;;;;;;;;;;5089232;28;20035;-84
2022/07/03 05:27:06;;;;;;;7.32;5.88;;;;;;;;;;5087353;28;20048;-84
2022/07/03 05:29:31;;;;;;;6.05;5.45;;;;;;;;;;5093169;28;20020;-86
2022/07/03 05:31:57;;;;;;;7.00;5.63;;;;;;;;;;5088219;28;20035;-86
2022/07/03 05:34:22;;;;;;;6.38;5.40;;;;;;;;;;5093871;28;20024;-86
2022/07/03 05:36:47;;;;;;;6.93;5.70;;;;;;;;;;5092169;28;20109;-87
2022/07/03 05:41:57;;;;;;;5.82;5.22;;;;;;;;;;5090539;28;20071;-85
2022/07/03 05:44:22;;;;;;;5.60;5.10;;;;;;;;;;5089112;28;20028;-86
2022/07/03 05:46:48;;;;;;;5.78;5.28;;;;;;;;;;5089631;28;20070;-88
2022/07/03 05:49:13;;;;;;;6.45;5.82;;;;;;;;;;5089020;28;20035;-87
2022/07/03 05:51:39;;;;;;;6.53;5.88;;;;;;;;;;5091521;28;20028;-86
2022/07/03 05:54:04;;;;;;;6.20;5.57;;;;;;;;;;5091803;28;20139;-87
2022/07/03 05:56:29;;;;;;;7.07;6.43;;;;;;;;;;5093092;28;20065;-88
2022/07/03 05:58:55;;;;;;;6.65;6.00;;;;;;;;;;5091890;28;20016;-85
2022/07/03 06:01:20;;;;;;;8.05;6.13;;;;;;;;;;5092129;28;20035;-89
2022/07/03 06:03:46;;;;;;;6.60;5.88;;;;;;;;;;5089849;28;20035;-86
2022/07/03 06:06:11;;;;;;;6.47;5.53;;;;;;;;;;5092463;28;20034;-86
2022/07/03 06:08:37;;;;;;;6.28;5.68;;;;;;;;;;5088525;28;20077;-87
2022/07/03 06:11:02;;;;;;;8.30;5.88;;;;;;;;;;5090992;28;20023;-87
2022/07/03 06:13:27;;;;;;;7.22;6.10;;;;;;;;;;5090714;28;20024;-86
2022/07/03 06:15:53;;;;;;;6.50;5.80;;;;;;;;;;5091181;28;20036;-87
2022/07/03 06:18:18;;;;;;;6.50;5.72;;;;;;;;;;5092903;28;20023;-85
2022/07/03 06:20:44;;;;;;;6.60;6.00;;;;;;;;;;5092905;28;20485;-87
2022/07/03 06:23:09;;;;;;;6.43;5.70;;;;;;;;;;5087628;28;20020;-87
2022/07/03 06:25:34;;;;;;;6.70;6.10;;;;;;;;;;5088967;28;20031;-88
2022/07/03 06:28:00;;;;;;;6.43;5.43;;;;;;;;;;5090495;28;20077;-87
2022/07/03 06:30:25;;;;;;;7.97;5.50;;;;;;;;;;5090937;28;20832;-87
2022/07/03 06:32:51;;;;;;;6.15;5.45;;;;;;;;;;5091466;28;20032;-86
2022/07/03 06:35:16;;;;;;;6.45;5.13;;;;;;;;;;5089921;28;20028;-87
2022/07/03 06:37:42;;;;;;;5.57;5.07;;;;;;;;;;5091231;28;20081;-86
2022/07/03 06:40:08;;;;;;;7.25;5.22;;;;;;;;;;5092610;28;20464;-88
2022/07/03 06:42:33;;;;;;;7.43;5.18;;;;;;;;;;5090669;28;20027;-89
2022/07/03 06:44:59;;;;;;;7.35;5.20;;;;;;;;;;5092472;28;20043;-87
2022/07/03 06:47:24;;;;;;;7.90;5.65;;;;;;;;;;5093006;28;20024;-87
2022/07/03 06:49:50;;;;;;;5.93;5.30;;;;;;;;;;5091217;28;20842;-84
2022/07/03 06:52:15;;;;;;;5.97;5.28;;;;;;;;;;5088952;28;20108;-84
2022/07/03 06:54:43;;;;;;;5.95;5.35;;;;;;;;;;5091537;28;20544;-85
2022/07/03 06:57:10;;;;;;;5.38;4.88;;;;;;;;;;5090649;28;20044;-83
2022/07/03 06:59:35;;;;;;;5.47;4.97;;;;;;;;;;5084060;28;20017;-83
2022/07/03 07:02:01;;;;;;;5.18;4.68;;;;;;;;;;5089921;28;20110;-84
2022/07/03 07:04:27;;;;;;;5.88;5.18;;;;;;;;;;5092254;28;20088;-84
2022/07/03 07:06:52;;;;;;;5.30;4.70;;;;;;;;;;5085643;28;20111;-84
2022/07/03 07:09:18;;;;;;;7.78;4.70;;;;;;;;;;5086512;28;20034;-85
2022/07/03 07:11:43;;;;;;;5.85;4.82;;;;;;;;;;5085202;28;20020;-89
2022/07/03 07:14:09;;;;;;;5.10;4.60;;;;;;;;;;5090450;28;20126;-86
2022/07/03 07:16:34;;;;;;;5.20;4.70;;;;;;;;;;5088923;28;20471;-85
2022/07/03 07:18:59;;;;;;;5.68;4.60;;;;;;;;;;5092040;28;20479;-86
2022/07/03 07:21:25;;;;;;;5.57;5.03;;;;;;;;;;5091163;28;20028;-87
2022/07/03 07:23:50;;;;;;;5.25;4.75;;;;;;;;;;5092148;28;20028;-85
2022/07/03 07:26:18;;;;;;;5.25;4.60;;;;;;;;;;5091173;28;20038;-86
2022/07/03 07:28:43;;;;;;;6.82;5.00;;;;;;;;;;5090671;28;20026;-86
2022/07/03 07:31:09;;;;;;;5.85;4.70;;;;;;;;;;5087891;28;20047;-89
2022/07/03 07:33:34;;;;;;;5.38;4.88;;;;;;;;;;5089281;28;20507;-88
2022/07/03 07:35:59;;;;;;;8.30;4.82;;;;;;;;;;5087731;28;20047;-87
2022/07/03 07:38:25;;;;;;;5.90;5.13;;;;;;;;;;5088754;28;20055;-85
2022/07/03 07:40:50;;;;;;;6.22;5.63;;;;;;;;;;5090468;28;20054;-89
2022/07/03 07:43:16;;;;;;;6.55;5.82;;;;;;;;;;5090326;28;20028;-89
2022/07/03 07:45:41;;;;;;;5.78;5.20;;;;;;;;;;5088377;28;20072;-86
2022/07/03 07:48:07;;;;;;;5.97;5.32;;;;;;;;;;5091680;28;20077;-88
2022/07/03 07:50:32;;;;;;;6.40;5.80;;;;;;;;;;5088599;28;20035;-86
2022/07/03 07:52:58;;;;;;;6.53;5.10;;;;;;;;;;5087036;28;20052;-85
2022/07/03 07:55:25;;;;;;;5.47;4.97;;;;;;;;;;5089907;28;20031;-87
2022/07/03 07:57:51;;;;;;;5.70;5.07;;;;;;;;;;5088009;28;20020;-86
2022/07/03 08:00:18;;;;;;;5.68;4.78;;;;;;;;;;5088898;28;20025;-87
2022/07/03 08:05:37;;;;;;;6.35;5.00;;;;;;;;;;5091897;28;20031;-88
2022/07/03 08:08:06;;;;;;;6.43;5.65;;;;;;;;;;5090525;28;20028;-86
2022/07/03 08:10:49;;;;;;;7.75;7.05;;;;;;;;;;5086357;28;20033;-87
2022/07/03 08:13:16;;;;;;;5.20;4.70;;;;;;;;;;5089365;28;20046;-89
2022/07/03 08:15:43;;;;;;;11.05;5.47;;;;;;;;;;5090870;28;20024;-87
2022/07/03 08:18:09;;;;;;;6.20;4.95;;;;;;;;;;5090562;28;20380;-87
2022/07/03 08:20:36;;;;;;;5.88;5.30;;;;;;;;;;5091489;28;20028;-86
2022/07/03 08:23:03;;;;;;;6.10;4.65;;;;;;;;;;5091571;28;20024;-88
2022/07/03 08:25:29;;;;;;;7.05;4.88;;;;;;;;;;5092083;28;20564;-88
2022/07/03 08:27:55;;;;;;;5.22;4.72;;;;;;;;;;5087717;28;20055;-87
2022/07/03 08:30:21;;;;;;;5.97;4.97;;;;;;;;;;5088298;28;20027;-87
2022/07/03 08:32:49;;;;;;;5.75;4.68;;;;;;;;;;5091449;28;20032;-87
2022/07/03 08:35:14;;;;;;;5.20;4.50;;;;;;;;;;5091291;28;20039;-89
2022/07/03 08:37:40;;;;;;;6.10;4.43;;;;;;;;;;5091093;28;20379;-86
2022/07/03 08:40:10;;;;;;;4.50;4.10;;;;;;;;;;5091166;28;20103;-89
2022/07/03 08:42:45;;;;;;;5.00;4.30;;;;;;;;;;5090634;28;20024;-88
2022/07/03 08:45:19;;;;;;;5.38;4.55;;;;;;;;;;5091135;28;20036;-87
2022/07/03 08:47:46;;;;;;;4.72;4.00;;;;;;;;;;5090056;28;20032;-88
2022/07/03 08:50:13;;;;;;;5.68;4.15;;;;;;;;;;5095271;28;20380;-88
2022/07/03 08:52:40;;;;;;;4.68;4.22;;;;;;;;;;5093668;28;20059;-87
2022/07/03 08:55:07;;;;;;;5.10;4.57;;;;;;;;;;5088152;28;20043;-88
2022/07/03 08:57:34;;;;;;;4.47;4.05;;;;;;;;;;5094852;28;20432;-86
2022/07/03 09:00:03;;;;;;;4.43;4.03;;;;;;;;;;5088616;28;20371;-86
2022/07/03 09:02:30;;;;;;;4.30;3.90;;;;;;;;;;5090652;28;20384;-90
2022/07/03 09:04:57;;;;;;;84.55;26.52;;;;;;;;;;5088693;28;20028;-87
2022/07/03 09:07:25;;;;;;;3.95;3.65;;;;;;;;;;5091285;28;20056;-87
2022/07/03 09:09:51;;;;;;;3.70;3.40;;;;;;;;;;5086170;28;20039;-88
2022/07/03 09:12:17;;;;;;;8.32;3.60;;;;;;;;;;5091749;28;20158;-85
2022/07/03 09:14:42;;;;;;;4.85;3.45;;;;;;;;;;5089423;28;20107;-89
2022/07/03 09:17:09;;;;;;;4.38;3.42;;;;;;;;;;5092173;28;20020;-88
2022/07/03 09:19:50;;;;;;;58.97;8.63;;;;;;;;;;5094851;28;20028;-86
2022/07/03 09:22:28;;;;;;;4.97;3.20;;;;;;;;;;5093435;28;20392;-86
2022/07/03 09:25:08;;;;;;;3.75;3.10;;;;;;;;;;5088826;28;20157;-87
2022/07/03 09:27:34;;;;;;;4.47;2.72;;;;;;;;;;5091059;28;20023;-87
2022/07/03 09:30:07;;;;;;;15.10;3.45;;;;;;;;;;5089695;28;20036;-85
2022/07/03 09:32:38;;;;;;;4.88;3.10;;;;;;;;;;5091273;28;20035;-85
2022/07/03 09:35:19;;;;;;;16.70;3.70;;;;;;;;;;5087706;28;20039;-86
2022/07/03 09:37:58;;;;;;;6.57;2.72;;;;;;;;;;5090619;28;20048;-87
2022/07/03 09:40:25;;;;;;;3.40;2.90;;;;;;;;;;5089149;28;20035;-86
2022/07/03 09:43:05;;;;;;;5.07;2.78;;;;;;;;;;5093086;28;20472;-88
2022/07/03 09:45:50;;;;;;;4.40;2.67;;;;;;;;;;5093610;28;20024;-84
2022/07/03 09:48:29;;;;;;;3.45;2.17;;;;;;;;;;5093742;28;20028;-85
2022/07/03 09:51:15;;;;;;;2.50;2.03;;;;;;;;;;5092555;28;20107;-85
2022/07/03 09:53:43;;;;;;;163.60;23.70;;;;;;;;;;5092075;28;20040;-85
2022/07/03 09:56:09;;;;;;;14.50;13.20;;;;;;;;;;5088075;28;20519;-85
2022/07/03 09:58:34;;;;;;;7.03;4.25;;;;;;;;;;5091260;28;20123;-85
2022/07/03 10:01:16;;;;;;;2.47;2.28;;;;;;;;;;5086375;28;20060;-85
2022/07/03 10:03:41;;;;;;;39.58;14.65;;;;;;;;;;5092695;28;20031;-85
2022/07/03 10:06:07;;;;;;;3.70;2.40;;;;;;;;;;5089334;28;20365;-86
2022/07/03 10:08:32;;;;;;;56.78;6.85;;;;;;;;;;5091458;28;20028;-86
2022/07/03 10:10:58;;;;;;;2.88;2.40;;;;;;;;;;5093257;28;20044;-85
2022/07/03 10:13:24;;;;;;;5.55;2.50;;;;;;;;;;5090837;28;20047;-85
2022/07/03 10:15:49;;;;;;;5.00;2.83;;;;;;;;;;5090732;28;20030;-85
2022/07/03 10:18:22;;;;;;;2.67;2.20;;;;;;;;;;5092765;28;20022;-86
2022/07/03 10:20:49;;;;;;;11.35;6.63;;;;;;;;;;5086007;28;20081;-85
2022/07/03 10:23:17;;;;;;;3.13;2.10;;;;;;;;;;5089856;28;20051;-85
2022/07/03 10:25:44;;;;;;;37.65;7.72;;;;;;;;;;5089915;28;20060;-86
2022/07/03 10:28:17;;;;;;;4.90;4.25;;;;;;;;;;5090757;28;20024;-84
2022/07/03 10:30:44;;;;;;;2.97;1.90;;;;;;;;;;5088565;28;20486;-84
2022/07/03 10:33:09;;;;;;;2.70;1.80;;;;;;;;;;5090567;28;20491;-85
2022/07/03 10:35:41;;;;;;;2.92;1.90;;;;;;;;;;5085483;28;20020;-84
2022/07/03 10:38:42;;;;;;;2.72;1.85;;;;;;;;;;5090769;28;20368;-84
2022/07/03 10:47:38;;;;;;;5.85;4.97;;;;;;;;;;5091639;28;20161;-84
2022/07/03 10:50:23;;;;;;;2.95;1.70;;;;;;;;;;5089496;28;20084;-84
2022/07/03 10:52:50;;;;;;;2.10;1.88;;;;;;;;;;5083307;28;20122;-84
2022/07/03 10:55:16;;;;;;;2.15;1.85;;;;;;;;;;5090426;28;20388;-84
2022/07/03 10:58:06;;;;;;;1.95;1.75;;;;;;;;;;5090036;28;20031;-86
2022/07/03 11:00:58;;;;;;;2.45;1.88;;;;;;;;;;5086278;28;20043;-84
2022/07/03 11:03:59;;;;;;;2.35;2.08;;;;;;;;;;5088357;28;20372;-84
2022/07/03 11:06:56;;;;;;;2.67;2.00;;;;;;;;;;5089331;28;20722;-87
2022/07/03 11:09:22;;;;;;;2.42;1.92;;;;;;;;;;5054851;28;20115;-85
2022/07/03 11:11:57;;;;;;;2.17;1.98;;;;;;;;;;5084478;28;20439;-84
2022/07/03 11:14:27;;;;;;;2.20;2.00;;;;;;;;;;5089322;28;20028;-82
2022/07/03 11:17:21;;;;;;;4.18;3.63;;;;;;;;;;5088556;28;20024;-83
2022/07/03 11:22:57;;;;;;;14.35;2.75;;;;;;;;;;5088598;28;20394;-83
2022/07/03 11:25:25;;;;;;;6.13;4.05;;;;;;;;;;5088956;28;20028;-83
2022/07/03 11:27:52;;;;;;;5.03;3.20;;;;;;;;;;5087806;28;20069;-85
2022/07/03 11:30:18;;;;;;;3.50;3.20;;;;;;;;;;5085628;28;20395;-85
2022/07/03 11:32:49;;;;;;;3.47;2.90;;;;;;;;;;5090701;28;20138;-86
2022/07/03 11:35:46;;;;;;;2.67;2.03;;;;;;;;;;5088664;28;20084;-85
2022/07/03 11:38:17;;;;;;;2.42;2.22;;;;;;;;;;5090346;28;20024;-84
2022/07/03 11:40:45;;;;;;;4.18;2.13;;;;;;;;;;5088799;28;20077;-84
2022/07/03 11:43:11;;;;;;;2.40;2.00;;;;;;;;;;5090270;28;20036;-85
2022/07/03 11:45:39;;;;;;;3.00;2.13;;;;;;;;;;5088090;28;20016;-85
2022/07/03 11:48:13;;;;;;;2.30;2.10;;;;;;;;;;5088892;28;20402;-86
2022/07/03 11:50:40;;;;;;;2.90;2.45;;;;;;;;;;5086991;28;20111;-84
2022/07/03 11:53:16;;;;;;;5.30;2.28;;;;;;;;;;5086338;28;20072;-86
2022/07/03 11:55:52;;;;;;;6.00;2.28;;;;;;;;;;5087331;28;20028;-85
2022/07/03 11:58:17;;;;;;;3.50;2.08;;;;;;;;;;5089138;28;20024;-85
2022/07/03 12:00:43;;;;;;;39.60;5.03;;;;;;;;;;5090668;28;20040;-86
2022/07/03 12:03:15;;;;;;;2.17;1.90;;;;;;;;;;5090940;28;20028;-85
2022/07/03 12:05:58;;;;;;;8.35;7.65;;;;;;;;;;5089884;28;20024;-86
2022/07/03 12:08:32;;;;;;;10.38;5.85;;;;;;;;;;5089140;28;20023;-84
2022/07/03 12:11:01;;;;;;;3.13;2.83;;;;;;;;;;5086440;28;20487;-85
2022/07/03 12:13:27;;;;;;;2.28;2.08;;;;;;;;;;5084998;28;20078;-84
2022/07/03 12:15:53;;;;;;;2.38;2.00;;;;;;;;;;5087046;28;20039;-86
2022/07/03 12:18:19;;;;;;;2.83;1.83;;;;;;;;;;5088417;28;20047;-85
2022/07/03 12:20:44;;;;;;;2.63;1.90;;;;;;;;;;5091084;28;20468;-85
2022/07/03 12:23:10;;;;;;;2.83;2.10;;;;;;;;;;5094542;28;20028;-85
2022/07/03 12:25:42;;;;;;;3.17;1.95;;;;;;;;;;5093794;28;20170;-86
2022/07/03 12:28:12;;;;;;;2.17;2.00;;;;;;;;;;5093871;28;20388;-84
2022/07/03 12:30:38;;;;;;;2.08;1.83;;;;;;;;;;5093842;28;20056;-85
2022/07/03 12:33:05;;;;;;;10.55;9.75;;;;;;;;;;5091005;28;20063;-86
2022/07/03 12:35:31;;;;;;;7.70;7.10;;;;;;;;;;5088645;28;20047;-86
2022/07/03 12:37:57;;;;;;;4.47;3.40;;;;;;;;;;5089782;28;20020;-86
2022/07/03 12:40:23;;;;;;;2.13;1.95;;;;;;;;;;5088840;28;20361;-88
2022/07/03 12:42:54;;;;;;;3.20;2.13;;;;;;;;;;5092595;28;20028;-87
2022/07/03 12:45:20;;;;;;;3.17;1.90;;;;;;;;;;5090176;28;21730;-87
2022/07/03 12:47:56;;;;;;;1.90;1.80;;;;;;;;;;5087774;28;20039;-86
2022/07/03 12:50:21;;;;;;;2.28;2.08;;;;;;;;;;5091200;28;20107;-86
2022/07/03 12:52:53;;;;;;;2.20;2.00;;;;;;;;;;5088153;28;20178;-86
2022/07/03 12:55:31;;;;;;;3.70;2.20;;;;;;;;;;5092362;28;20039;-86
2022/07/03 13:01:06;;;;;;;9.23;8.52;;;;;;;;;;5088871;28;20494;-86
2022/07/03 13:03:37;;;;;;;4.57;4.18;;;;;;;;;;5089446;28;20062;-85
2022/07/03 13:06:11;;;;;;;4.50;2.40;;;;;;;;;;5091608;28;20027;-85
2022/07/03 13:08:37;;;;;;;2.17;1.98;;;;;;;;;;5090917;28;20024;-86
2022/07/03 13:11:03;;;;;;;2.58;1.90;;;;;;;;;;5089297;28;20094;-86
2022/07/03 13:13:47;;;;;;;3.08;2.20;;;;;;;;;;5092208;28;20115;-86
2022/07/03 13:16:27;;;;;;;3.38;2.17;;;;;;;;;;5092383;28;20113;-86
2022/07/03 13:19:00;;;;;;;3.08;2.00;;;;;;;;;;5090384;28;20479;-84
2022/07/03 13:21:26;;;;;;;2.40;2.20;;;;;;;;;;5084539;28;20365;-86
2022/07/03 13:23:52;;;;;;;2.33;2.10;;;;;;;;;;5091445;28;20464;-86
2022/07/03 13:26:18;;;;;;;38.88;36.05;;;;;;;;;;5089076;28;20031;-86
2022/07/03 13:28:44;;;;;;;18.40;17.02;;;;;;;;;;5090617;28;20024;-87
2022/07/03 13:31:09;;;;;;;6.55;5.90;;;;;;;;;;5092686;28;20498;-86
2022/07/03 13:33:35;;;;;;;2.42;2.03;;;;;;;;;;5091454;28;20031;-86
2022/07/03 13:36:00;;;;;;;3.75;2.22;;;;;;;;;;5087766;28;20429;-86
2022/07/03 13:38:25;;;;;;;4.15;2.20;;;;;;;;;;5091283;28;20045;-83
2022/07/03 13:40:51;;;;;;;2.35;2.15;;;;;;;;;;5090164;28;20103;-85
2022/07/03 13:43:16;;;;;;;2.40;2.20;;;;;;;;;;5091612;28;20027;-84
2022/07/03 13:45:43;;;;;;;2.53;2.33;;;;;;;;;;5089557;28;20020;-84
2022/07/03 13:48:08;;;;;;;18.17;16.88;;;;;;;;;;5090272;28;20073;-84
2022/07/03 13:50:34;;;;;;;16.42;14.93;;;;;;;;;;5092341;28;20032;-86
2022/07/03 13:52:59;;;;;;;3.30;2.90;;;;;;;;;;5090107;28;20050;-84
2022/07/03 13:55:25;;;;;;;3.67;2.45;;;;;;;;;;5087618;28;20122;-83
2022/07/03 13:57:51;;;;;;;2.10;1.95;;;;;;;;;;5089375;28;20042;-86
2022/07/03 14:00:16;;;;;;;3.17;2.35;;;;;;;;;;5089303;28;20032;-85
2022/07/03 14:02:42;;;;;;;2.60;2.40;;;;;;;;;;5088900;28;20028;-85
2022/07/03 14:05:08;;;;;;;3.97;2.80;;;;;;;;;;5091520;28;20107;-85
2022/07/03 14:07:34;;;;;;;7.10;6.53;;;;;;;;;;5088113;28;20069;-88
2022/07/03 14:09:59;;;;;;;10.55;9.65;;;;;;;;;;5089387;28;20055;-86
2022/07/03 14:12:25;;;;;;;4.82;4.47;;;;;;;;;;5091377;28;20040;-87
2022/07/03 14:14:50;;;;;;;4.82;2.58;;;;;;;;;;5090909;28;20024;-86
2022/07/03 14:17:15;;;;;;;2.67;2.40;;;;;;;;;;5087113;28;20112;-87
2022/07/03 14:19:41;;;;;;;3.55;2.13;;;;;;;;;;5089143;28;20024;-85
2022/07/03 14:22:06;;;;;;;6.18;2.35;;;;;;;;;;5092379;28;20103;-86
2022/07/03 14:24:32;;;;;;;57.35;52.92;;;;;;;;;;5085944;28;20103;-87
2022/07/03 14:32:31;;;;;;;3.42;2.92;;;;;;;;;;5091178;28;20035;-85
2022/07/03 14:35:00;;;;;;;3.67;3.08;;;;;;;;;;5088454;28;20036;-85
2022/07/03 14:37:26;;;;;;;3.65;2.60;;;;;;;;;;5091506;28;20020;-86
2022/07/03 14:39:52;;;;;;;3.20;2.50;;;;;;;;;;5087802;28;20090;-87
2022/07/03 14:42:17;;;;;;;5.50;2.60;;;;;;;;;;5088128;28;20036;-86
2022/07/03 14:44:44;;;;;;;7.95;7.25;;;;;;;;;;5088640;28;20023;-85
2022/07/03 14:47:09;;;;;;;10.32;9.43;;;;;;;;;;5123641;27;21586;-85
2022/07/03 14:49:35;;;;;;;6.72;6.05;;;;;;;;;;5091709;28;20023;-86
2022/07/03 14:52:02;;;;;;;5.15;3.58;;;;;;;;;;5089244;28;20039;-85
2022/07/03 14:54:27;;;;;;;3.10;2.80;;;;;;;;;;5087984;28;20047;-84
2022/07/03 14:56:52;;;;;;;2.90;2.60;;;;;;;;;;5092162;28;20028;-84
2022/07/03 14:59:32;;;;;;;10.10;2.92;;;;;;;;;;5092482;28;20023;-83
2022/07/03 15:01:58;;;;;;;5.00;2.85;;;;;;;;;;5091476;28;20455;-85
2022/07/03 15:04:45;;;;;;;4.20;2.85;;;;;;;;;;5090595;28;20035;-85
2022/07/03 15:07:13;;;;;;;3.53;2.50;;;;;;;;;;5088843;28;20024;-85
2022/07/03 15:09:45;;;;;;;2.88;2.60;;;;;;;;;;5091992;28;20024;-87
2022/07/03 15:12:27;;;;;;;3.17;2.65;;;;;;;;;;5089654;28;20034;-85
2022/07/03 15:14:53;;;;;;;2.85;2.60;;;;;;;;;;5091603;28;20085;-86
2022/07/03 15:17:21;;;;;;;2.70;2.50;;;;;;;;;;5091130;28;20027;-86